Brilliance Of The Seas — C6SJ5 — position and weather

sailwx.info

Track history (hours):
 
Tides and Currents Weather Stations Pressure Air Temp Water Temp Dewpoint Dewpoint Depression Visibility Wind Speed Wind Dir Waves Ship Positions

Brilliance Of The Seas

Operator: Royal Caribbean Cruises Ltd

Last reported at 2015-May-22 19:28 UTC. Time now 2015-May-23 01:13 UTC.
Position N 59°59' E 026°50'.

Type: Ship. MMSI: 311361000.

Date/timePositionNaut miles runAvg speedWind from/ knotsBaromVisibWave heightAir tempDewpointWater temp
2015-May-22 19:28N 59°59' E 026°50'6615.3
2015-May-22 15:10N 59°40' E 024°45'812.8
2015-May-22 14:33N 59°32' E 024°44'5 5.1
2015-May-22 13:32N 59°27' E 024°46'0 0.0
2015-May-22 12:29N 59°27' E 024°46'0 0.0
2015-May-22 11:32N 59°27' E 024°46'0 0.0
2015-May-22 10:32N 59°27' E 024°46'0 0.0
2015-May-22 09:32N 59°27' E 024°46'0 0.0
2015-May-22 08:26N 59°27' E 024°46'0 0.0
2015-May-22 07:29N 59°27' E 024°46'0 0.0
2015-May-22 06:32N 59°27' E 024°46'0 0.2
2015-May-22 05:34N 59°27' E 024°46'1111.4
2015-May-22 04:33N 59°30' E 024°24'2120.0
2015-May-22 03:31N 59°29' E 023°43'34720.5
2015-May-21 10:33N 55°39' E 015°39'2020.5
2015-May-21 09:33N 55°30' E 015°06'1010.3
2015-May-21 08:33N 55°27' E 014°49'2020.0
2015-May-21 07:33N 55°12' E 014°26'2119.9
2015-May-21 06:31N 54°58' E 013°59'7518.9
2015-May-21 02:33N 54°24' E 012°04'1919.2
2015-May-21 01:33N 54°27' E 011°32'1818.3
2015-May-21 00:33N 54°35' E 011°03'9914.0
2015-May-20 17:28N 56°10' E 011°53'1718.2
2015-May-20 16:33N 56°11' E 012°22'1918.5
2015-May-20 15:34N 55°57' E 012°43'1514.7
2015-May-20 14:33N 55°43' E 012°37'1 0.7
2015-May-20 13:33N 55°42' E 012°36'0 0.0
2015-May-20 12:33N 55°42' E 012°36'0 0.0
2015-May-20 11:33N 55°42' E 012°36'0 0.0
2015-May-20 10:31N 55°42' E 012°36'0 0.0
2015-May-20 09:31N 55°42' E 012°36'0 0.0
2015-May-20 08:32N 55°42' E 012°36'0 0.1
2015-May-20 07:31N 55°42' E 012°36'0 0.0
2015-May-20 06:31N 55°42' E 012°36'0 0.0
2015-May-20 05:31N 55°42' E 012°36'0 0.0
2015-May-20 04:31N 55°42' E 012°36'4 4.6
2015-May-20 03:33N 55°45' E 012°41'1414.4
2015-May-20 02:34N 55°60' E 012°40'1717.2
2015-May-20 01:33N 56°12' E 012°18'2217.8
2015-May-20 00:20N 56°30' E 011°58'1519.4
2015-May-19 23:33N 56°45' E 011°51'2019.5
2015-May-19 22:32N 57°04' E 011°40'1818.9
2015-May-19 21:33N 57°22' E 011°30'1818.1
2015-May-19 20:33N 57°36' E 011°08'1818.0
2015-May-19 19:34N 57°48' E 010°43'30118.7
2015-May-19 03:29N 54°03' E 004°45'14818.6
2015-May-18 19:33N 52°10' E 002°08'1717.2
2015-May-18 18:33N 51°57' E 001°51'1110.8
2015-May-18 17:33N 51°52' E 001°34'1110.7
2015-May-18 16:34N 51°57' E 001°19'2 1.9
2015-May-18 15:32N 51°57' E 001°16'0 0.0
2015-May-18 14:32N 51°57' E 001°16'0 0.0
2015-May-18 13:32N 51°57' E 001°16'0 0.0
2015-May-18 12:32N 51°57' E 001°16'0 0.0
2015-May-18 11:32N 51°57' E 001°16'0 0.0
2015-May-18 10:32N 51°57' E 001°16'0 0.0
2015-May-18 09:32N 51°57' E 001°16'0 0.0
2015-May-18 08:32N 51°57' E 001°16'0 0.0
2015-May-18 07:32N 51°57' E 001°16'0 0.0
2015-May-18 06:32N 51°57' E 001°16'0 0.0
2015-May-18 05:32N 51°57' E 001°16'0 0.0
2015-May-18 04:32N 51°57' E 001°16'0 0.0
2015-May-18 03:33N 51°57' E 001°16'6 5.7
2015-May-18 02:33N 51°56' E 001°25'1010.3
2015-May-18 01:34N 51°52' E 001°40'8 7.7
2015-May-18 00:33N 51°46' E 001°48'1010.5
2015-May-17 23:33N 51°35' E 001°51'1010.3
2015-May-17 22:33N 51°26' E 001°58'10 9.6
2015-May-17 21:33N 51°22' E 002°12'10 9.8
2015-May-17 20:32N 51°22' E 002°28'1010.3
2015-May-17 19:33N 51°22' E 002°44'1514.2
2015-May-17 18:32N 51°24' E 003°07'5 4.7
2015-May-17 17:28N 51°20' E 003°13'0 0.0
2015-May-17 16:31N 51°20' E 003°13'0 0.0
2015-May-17 15:31N 51°20' E 003°13'0 0.0
2015-May-17 14:31N 51°20' E 003°13'0 0.0
2015-May-17 13:31N 51°20' E 003°13'0 0.0
2015-May-17 12:31N 51°20' E 003°13'0 0.0
2015-May-17 11:31N 51°20' E 003°13'0 0.0
2015-May-17 10:31N 51°20' E 003°13'0 0.0
2015-May-17 09:33N 51°20' E 003°13'1010.2
2015-May-17 08:33N 51°22' E 002°57'1514.9
2015-May-17 07:33N 51°22' E 002°33'1716.8
2015-May-17 06:34N 51°15' E 002°09'1716.7
2015-May-17 05:34N 51°06' E 001°46'1615.7
2015-May-17 04:33N 50°54' E 001°29'1515.3
2015-May-17 03:33N 50°40' E 001°20'9716.1
2015-May-16 21:32N 49°59' W 000°57'1615.8
2015-May-16 20:33N 49°52' W 001°18'26210.1
2015-May-15 18:34N 51°25' W 007°45'1918.5
2015-May-15 17:33N 51°38' W 008°06'1413.5
2015-May-15 16:33N 51°50' W 008°16'2 1.6
2015-May-15 15:33N 51°51' W 008°18'0 0.0
2015-May-15 14:33N 51°51' W 008°18'0 0.0
2015-May-15 13:33N 51°51' W 008°18'0 0.0
2015-May-15 12:33N 51°51' W 008°18'0 0.0
2015-May-15 11:33N 51°51' W 008°18'0 0.0
2015-May-15 10:33N 51°51' W 008°18'0 0.0
2015-May-15 09:33N 51°51' W 008°18'0 0.0
2015-May-15 08:33N 51°51' W 008°18'0 0.0
2015-May-15 07:33N 51°51' W 008°18'0 0.0
2015-May-15 06:33N 51°51' W 008°18'3 3.4
2015-May-15 05:33N 51°48' W 008°16'1312.8
2015-May-15 04:33N 51°35' W 008°15'1414.2
2015-May-15 03:34N 51°22' W 008°22'1715.4
2015-May-15 02:26N 51°13' W 008°46'1415.7
2015-May-15 01:33N 51°07' W 009°05'  
Track history (hours):
 
Tides and Currents Weather Stations Pressure Air Temp Water Temp Dewpoint Dewpoint Depression Visibility Wind Speed Wind Dir Waves Ship Positions

Brilliance Of The Seas

Operator: Royal Caribbean Cruises Ltd

Last reported at 2015-May-22 19:28 UTC. Time now 2015-May-23 01:13 UTC.
Position N 59°59' E 026°50'.

Type: Ship. MMSI: 311361000.

Date/timePositionNaut miles runAvg speedWind from/ knotsBaromVisibWave heightAir tempDewpointWater temp
2015-May-22 19:28N 59°59' E 026°50'6615.3
2015-May-22 15:10N 59°40' E 024°45'812.8
2015-May-22 14:33N 59°32' E 024°44'5 5.1
2015-May-22 13:32N 59°27' E 024°46'0 0.0
2015-May-22 12:29N 59°27' E 024°46'0 0.0
2015-May-22 11:32N 59°27' E 024°46'0 0.0
2015-May-22 10:32N 59°27' E 024°46'0 0.0
2015-May-22 09:32N 59°27' E 024°46'0 0.0
2015-May-22 08:26N 59°27' E 024°46'0 0.0
2015-May-22 07:29N 59°27' E 024°46'0 0.0
2015-May-22 06:32N 59°27' E 024°46'0 0.2
2015-May-22 05:34N 59°27' E 024°46'1111.4
2015-May-22 04:33N 59°30' E 024°24'2120.0
2015-May-22 03:31N 59°29' E 023°43'34720.5
2015-May-21 10:33N 55°39' E 015°39'2020.5
2015-May-21 09:33N 55°30' E 015°06'1010.3
2015-May-21 08:33N 55°27' E 014°49'2020.0
2015-May-21 07:33N 55°12' E 014°26'2119.9
2015-May-21 06:31N 54°58' E 013°59'7518.9
2015-May-21 02:33N 54°24' E 012°04'1919.2
2015-May-21 01:33N 54°27' E 011°32'1818.3
2015-May-21 00:33N 54°35' E 011°03'9914.0
2015-May-20 17:28N 56°10' E 011°53'1718.2
2015-May-20 16:33N 56°11' E 012°22'1918.5
2015-May-20 15:34N 55°57' E 012°43'1514.7
2015-May-20 14:33N 55°43' E 012°37'1 0.7
2015-May-20 13:33N 55°42' E 012°36'0 0.0
2015-May-20 12:33N 55°42' E 012°36'0 0.0
2015-May-20 11:33N 55°42' E 012°36'0 0.0
2015-May-20 10:31N 55°42' E 012°36'0 0.0
2015-May-20 09:31N 55°42' E 012°36'0 0.0
2015-May-20 08:32N 55°42' E 012°36'0 0.1
2015-May-20 07:31N 55°42' E 012°36'0 0.0
2015-May-20 06:31N 55°42' E 012°36'0 0.0
2015-May-20 05:31N 55°42' E 012°36'0 0.0
2015-May-20 04:31N 55°42' E 012°36'4 4.6
2015-May-20 03:33N 55°45' E 012°41'1414.4
2015-May-20 02:34N 55°60' E 012°40'1717.2
2015-May-20 01:33N 56°12' E 012°18'2217.8
2015-May-20 00:20N 56°30' E 011°58'1519.4
2015-May-19 23:33N 56°45' E 011°51'2019.5
2015-May-19 22:32N 57°04' E 011°40'1818.9
2015-May-19 21:33N 57°22' E 011°30'1818.1
2015-May-19 20:33N 57°36' E 011°08'1818.0
2015-May-19 19:34N 57°48' E 010°43'30118.7
2015-May-19 03:29N 54°03' E 004°45'14818.6
2015-May-18 19:33N 52°10' E 002°08'1717.2
2015-May-18 18:33N 51°57' E 001°51'1110.8
2015-May-18 17:33N 51°52' E 001°34'1110.7
2015-May-18 16:34N 51°57' E 001°19'2 1.9
2015-May-18 15:32N 51°57' E 001°16'0 0.0
2015-May-18 14:32N 51°57' E 001°16'0 0.0
2015-May-18 13:32N 51°57' E 001°16'0 0.0
2015-May-18 12:32N 51°57' E 001°16'0 0.0
2015-May-18 11:32N 51°57' E 001°16'0 0.0
2015-May-18 10:32N 51°57' E 001°16'0 0.0
2015-May-18 09:32N 51°57' E 001°16'0 0.0
2015-May-18 08:32N 51°57' E 001°16'0 0.0
2015-May-18 07:32N 51°57' E 001°16'0 0.0
2015-May-18 06:32N 51°57' E 001°16'0 0.0
2015-May-18 05:32N 51°57' E 001°16'0 0.0
2015-May-18 04:32N 51°57' E 001°16'0 0.0
2015-May-18 03:33N 51°57' E 001°16'6 5.7
2015-May-18 02:33N 51°56' E 001°25'1010.3
2015-May-18 01:34N 51°52' E 001°40'8 7.7
2015-May-18 00:33N 51°46' E 001°48'1010.5
2015-May-17 23:33N 51°35' E 001°51'1010.3
2015-May-17 22:33N 51°26' E 001°58'10 9.6
2015-May-17 21:33N 51°22' E 002°12'10 9.8
2015-May-17 20:32N 51°22' E 002°28'1010.3
2015-May-17 19:33N 51°22' E 002°44'1514.2
2015-May-17 18:32N 51°24' E 003°07'5 4.7
2015-May-17 17:28N 51°20' E 003°13'0 0.0
2015-May-17 16:31N 51°20' E 003°13'0 0.0
2015-May-17 15:31N 51°20' E 003°13'0 0.0
2015-May-17 14:31N 51°20' E 003°13'0 0.0
2015-May-17 13:31N 51°20' E 003°13'0 0.0
2015-May-17 12:31N 51°20' E 003°13'0 0.0
2015-May-17 11:31N 51°20' E 003°13'0 0.0
2015-May-17 10:31N 51°20' E 003°13'0 0.0
2015-May-17 09:33N 51°20' E 003°13'1010.2
2015-May-17 08:33N 51°22' E 002°57'1514.9
2015-May-17 07:33N 51°22' E 002°33'1716.8
2015-May-17 06:34N 51°15' E 002°09'1716.7
2015-May-17 05:34N 51°06' E 001°46'1615.7
2015-May-17 04:33N 50°54' E 001°29'1515.3
2015-May-17 03:33N 50°40' E 001°20'9716.1
2015-May-16 21:32N 49°59' W 000°57'1615.8
2015-May-16 20:33N 49°52' W 001°18'26210.1
2015-May-15 18:34N 51°25' W 007°45'1918.5
2015-May-15 17:33N 51°38' W 008°06'1413.5
2015-May-15 16:33N 51°50' W 008°16'2 1.6
2015-May-15 15:33N 51°51' W 008°18'0 0.0
2015-May-15 14:33N 51°51' W 008°18'0 0.0
2015-May-15 13:33N 51°51' W 008°18'0 0.0
2015-May-15 12:33N 51°51' W 008°18'0 0.0
2015-May-15 11:33N 51°51' W 008°18'0 0.0
2015-May-15 10:33N 51°51' W 008°18'0 0.0
2015-May-15 09:33N 51°51' W 008°18'0 0.0
2015-May-15 08:33N 51°51' W 008°18'0 0.0
2015-May-15 07:33N 51°51' W 008°18'0 0.0
2015-May-15 06:33N 51°51' W 008°18'3 3.4
2015-May-15 05:33N 51°48' W 008°16'1312.8
2015-May-15 04:33N 51°35' W 008°15'1414.2
2015-May-15 03:34N 51°22' W 008°22'1715.4
2015-May-15 02:26N 51°13' W 008°46'1415.7
2015-May-15 01:33N 51°07' W 009°05'  

Dump ship's entire track history